sensor_id;sensor_type;location;lat;lon;timestamp;P1;durP1;ratioP1;P2;durP2;ratioP2
11877;SDS011;5998;42.676;23.268;2022-09-17T00:01:35;6.30;;;3.73;;
11877;SDS011;5998;42.676;23.268;2022-09-17T00:04:02;4.20;;;3.60;;
11877;SDS011;5998;42.676;23.268;2022-09-17T00:06:29;5.40;;;3.33;;
11877;SDS011;5998;42.676;23.268;2022-09-17T00:09:00;5.87;;;3.53;;
11877;SDS011;5998;42.676;23.268;2022-09-17T00:11:28;5.83;;;3.47;;
11877;SDS011;5998;42.676;23.268;2022-09-17T00:13:56;7.13;;;3.60;;
11877;SDS011;5998;42.676;23.268;2022-09-17T00:16:27;5.40;;;3.30;;
11877;SDS011;5998;42.676;23.268;2022-09-17T00:18:55;4.87;;;3.30;;
11877;SDS011;5998;42.676;23.268;2022-09-17T00:21:22;5.87;;;3.80;;
11877;SDS011;5998;42.676;23.268;2022-09-17T00:23:52;4.50;;;3.30;;
11877;SDS011;5998;42.676;23.268;2022-09-17T00:26:20;5.40;;;3.50;;
11877;SDS011;5998;42.676;23.268;2022-09-17T00:28:48;10.03;;;3.90;;
11877;SDS011;5998;42.676;23.268;2022-09-17T00:31:15;5.70;;;3.53;;
11877;SDS011;5998;42.676;23.268;2022-09-17T00:33:44;5.67;;;3.40;;
11877;SDS011;5998;42.676;23.268;2022-09-17T00:36:10;8.03;;;3.57;;
11877;SDS011;5998;42.676;23.268;2022-09-17T00:38:37;6.77;;;3.20;;
11877;SDS011;5998;42.676;23.268;2022-09-17T00:41:04;9.90;;;3.60;;
11877;SDS011;5998;42.676;23.268;2022-09-17T00:43:37;7.27;;;3.93;;
11877;SDS011;5998;42.676;23.268;2022-09-17T00:46:09;8.33;;;3.50;;
11877;SDS011;5998;42.676;23.268;2022-09-17T00:48:47;8.63;;;3.63;;
11877;SDS011;5998;42.676;23.268;2022-09-17T00:51:17;6.47;;;3.37;;
11877;SDS011;5998;42.676;23.268;2022-09-17T00:53:47;5.40;;;3.53;;
11877;SDS011;5998;42.676;23.268;2022-09-17T00:56:16;5.33;;;3.40;;
11877;SDS011;5998;42.676;23.268;2022-09-17T00:58:47;6.43;;;3.23;;
11877;SDS011;5998;42.676;23.268;2022-09-17T01:01:14;5.23;;;3.53;;
11877;SDS011;5998;42.676;23.268;2022-09-17T01:03:41;8.50;;;3.20;;
11877;SDS011;5998;42.676;23.268;2022-09-17T01:06:11;5.47;;;3.30;;
11877;SDS011;5998;42.676;23.268;2022-09-17T01:08:45;6.20;;;3.70;;
11877;SDS011;5998;42.676;23.268;2022-09-17T01:11:24;5.10;;;3.60;;
11877;SDS011;5998;42.676;23.268;2022-09-17T01:14:02;7.23;;;3.47;;
11877;SDS011;5998;42.676;23.268;2022-09-17T01:16:42;7.40;;;4.07;;
11877;SDS011;5998;42.676;23.268;2022-09-17T01:19:39;5.97;;;3.60;;
11877;SDS011;5998;42.676;23.268;2022-09-17T01:22:29;6.23;;;3.07;;
11877;SDS011;5998;42.676;23.268;2022-09-17T01:25:02;6.97;;;3.43;;
11877;SDS011;5998;42.676;23.268;2022-09-17T01:30:59;4.83;;;3.57;;
11877;SDS011;5998;42.676;23.268;2022-09-17T01:33:35;5.40;;;3.47;;
11877;SDS011;5998;42.676;23.268;2022-09-17T01:36:13;7.70;;;3.40;;
11877;SDS011;5998;42.676;23.268;2022-09-17T01:38:49;5.70;;;3.73;;
11877;SDS011;5998;42.676;23.268;2022-09-17T01:41:26;9.53;;;3.60;;
11877;SDS011;5998;42.676;23.268;2022-09-17T01:44:00;5.30;;;3.90;;
11877;SDS011;5998;42.676;23.268;2022-09-17T01:46:34;4.10;;;3.70;;
11877;SDS011;5998;42.676;23.268;2022-09-17T01:49:06;7.03;;;3.70;;
11877;SDS011;5998;42.676;23.268;2022-09-17T01:51:37;5.13;;;3.90;;
11877;SDS011;5998;42.676;23.268;2022-09-17T01:54:08;7.00;;;4.17;;
11877;SDS011;5998;42.676;23.268;2022-09-17T01:56:41;7.93;;;5.57;;
11877;SDS011;5998;42.676;23.268;2022-09-17T01:59:14;9.53;;;5.57;;
11877;SDS011;5998;42.676;23.268;2022-09-17T02:01:46;8.47;;;5.57;;
11877;SDS011;5998;42.676;23.268;2022-09-17T02:04:19;7.43;;;5.90;;
11877;SDS011;5998;42.676;23.268;2022-09-17T02:06:52;6.37;;;5.57;;
11877;SDS011;5998;42.676;23.268;2022-09-17T02:09:26;9.40;;;5.10;;
11877;SDS011;5998;42.676;23.268;2022-09-17T02:11:58;9.87;;;4.67;;
11877;SDS011;5998;42.676;23.268;2022-09-17T02:14:29;7.50;;;4.70;;
11877;SDS011;5998;42.676;23.268;2022-09-17T02:17:04;7.67;;;5.17;;
11877;SDS011;5998;42.676;23.268;2022-09-17T02:19:35;7.27;;;5.33;;
11877;SDS011;5998;42.676;23.268;2022-09-17T02:22:05;10.27;;;5.57;;
11877;SDS011;5998;42.676;23.268;2022-09-17T02:24:41;8.90;;;6.20;;
11877;SDS011;5998;42.676;23.268;2022-09-17T02:27:17;6.40;;;4.70;;
11877;SDS011;5998;42.676;23.268;2022-09-17T02:29:48;8.70;;;5.73;;
11877;SDS011;5998;42.676;23.268;2022-09-17T02:32:17;9.63;;;6.07;;
11877;SDS011;5998;42.676;23.268;2022-09-17T02:34:43;9.43;;;5.67;;
11877;SDS011;5998;42.676;23.268;2022-09-17T02:37:11;7.03;;;5.47;;
11877;SDS011;5998;42.676;23.268;2022-09-17T02:39:39;7.67;;;5.77;;
11877;SDS011;5998;42.676;23.268;2022-09-17T02:42:09;6.90;;;5.97;;
11877;SDS011;5998;42.676;23.268;2022-09-17T02:44:48;6.00;;;5.13;;
11877;SDS011;5998;42.676;23.268;2022-09-17T02:47:35;7.67;;;5.90;;
11877;SDS011;5998;42.676;23.268;2022-09-17T02:50:23;8.77;;;5.10;;
11877;SDS011;5998;42.676;23.268;2022-09-17T02:52:58;8.80;;;6.13;;
11877;SDS011;5998;42.676;23.268;2022-09-17T02:55:35;10.97;;;5.87;;
11877;SDS011;5998;42.676;23.268;2022-09-17T02:58:10;8.50;;;5.87;;
11877;SDS011;5998;42.676;23.268;2022-09-17T03:00:44;8.23;;;5.43;;
11877;SDS011;5998;42.676;23.268;2022-09-17T03:03:15;10.67;;;5.73;;
11877;SDS011;5998;42.676;23.268;2022-09-17T03:05:45;11.00;;;6.27;;
11877;SDS011;5998;42.676;23.268;2022-09-17T03:08:15;7.20;;;5.97;;
11877;SDS011;5998;42.676;23.268;2022-09-17T03:10:44;10.47;;;6.00;;
11877;SDS011;5998;42.676;23.268;2022-09-17T03:13:13;8.60;;;5.67;;
11877;SDS011;5998;42.676;23.268;2022-09-17T03:15:40;6.00;;;5.40;;
11877;SDS011;5998;42.676;23.268;2022-09-17T03:18:07;7.03;;;5.70;;
11877;SDS011;5998;42.676;23.268;2022-09-17T03:20:35;7.93;;;5.77;;
11877;SDS011;5998;42.676;23.268;2022-09-17T03:23:01;8.73;;;5.90;;
11877;SDS011;5998;42.676;23.268;2022-09-17T03:25:28;5.77;;;5.17;;
11877;SDS011;5998;42.676;23.268;2022-09-17T03:27:55;10.67;;;5.77;;
11877;SDS011;5998;42.676;23.268;2022-09-17T03:30:22;6.93;;;5.00;;
11877;SDS011;5998;42.676;23.268;2022-09-17T03:32:48;9.63;;;5.40;;
11877;SDS011;5998;42.676;23.268;2022-09-17T03:35:15;7.00;;;5.23;;
11877;SDS011;5998;42.676;23.268;2022-09-17T03:37:43;8.20;;;5.23;;
11877;SDS011;5998;42.676;23.268;2022-09-17T03:40:11;8.07;;;5.73;;
11877;SDS011;5998;42.676;23.268;2022-09-17T03:42:38;5.90;;;5.30;;
11877;SDS011;5998;42.676;23.268;2022-09-17T03:45:05;8.03;;;5.30;;
11877;SDS011;5998;42.676;23.268;2022-09-17T03:47:33;8.23;;;5.70;;
11877;SDS011;5998;42.676;23.268;2022-09-17T03:50:00;8.67;;;4.73;;
11877;SDS011;5998;42.676;23.268;2022-09-17T03:52:26;7.33;;;4.83;;
11877;SDS011;5998;42.676;23.268;2022-09-17T03:54:54;7.63;;;4.77;;
11877;SDS011;5998;42.676;23.268;2022-09-17T03:57:21;7.23;;;5.20;;
11877;SDS011;5998;42.676;23.268;2022-09-17T03:59:48;9.13;;;5.50;;
11877;SDS011;5998;42.676;23.268;2022-09-17T04:02:15;8.90;;;5.40;;
11877;SDS011;5998;42.676;23.268;2022-09-17T04:04:42;11.60;;;5.47;;
11877;SDS011;5998;42.676;23.268;2022-09-17T04:07:08;9.97;;;5.53;;
11877;SDS011;5998;42.676;23.268;2022-09-17T04:09:35;7.37;;;5.80;;
11877;SDS011;5998;42.676;23.268;2022-09-17T04:12:03;7.90;;;5.50;;
11877;SDS011;5998;42.676;23.268;2022-09-17T04:14:30;8.50;;;5.90;;
11877;SDS011;5998;42.676;23.268;2022-09-17T04:16:57;11.27;;;5.80;;
11877;SDS011;5998;42.676;23.268;2022-09-17T04:19:24;9.40;;;6.03;;
11877;SDS011;5998;42.676;23.268;2022-09-17T04:21:50;8.23;;;5.60;;
11877;SDS011;5998;42.676;23.268;2022-09-17T04:24:18;8.93;;;5.70;;
11877;SDS011;5998;42.676;23.268;2022-09-17T04:26:45;8.30;;;6.00;;
11877;SDS011;5998;42.676;23.268;2022-09-17T04:29:13;10.47;;;6.80;;
11877;SDS011;5998;42.676;23.268;2022-09-17T04:31:40;7.07;;;6.10;;
11877;SDS011;5998;42.676;23.268;2022-09-17T04:34:07;9.70;;;5.97;;
11877;SDS011;5998;42.676;23.268;2022-09-17T04:36:33;9.13;;;6.00;;
11877;SDS011;5998;42.676;23.268;2022-09-17T04:39:00;9.93;;;6.23;;
11877;SDS011;5998;42.676;23.268;2022-09-17T04:41:27;11.80;;;5.70;;
11877;SDS011;5998;42.676;23.268;2022-09-17T04:43:53;60.37;;;12.70;;
11877;SDS011;5998;42.676;23.268;2022-09-17T04:46:21;15.13;;;11.80;;
11877;SDS011;5998;42.676;23.268;2022-09-17T04:48:48;8.60;;;6.40;;
11877;SDS011;5998;42.676;23.268;2022-09-17T04:51:15;9.70;;;6.87;;
11877;SDS011;5998;42.676;23.268;2022-09-17T04:53:41;11.07;;;6.67;;
11877;SDS011;5998;42.676;23.268;2022-09-17T04:56:08;13.03;;;8.33;;
11877;SDS011;5998;42.676;23.268;2022-09-17T04:58:35;10.13;;;4.10;;
11877;SDS011;5998;42.676;23.268;2022-09-17T05:01:02;5.93;;;3.00;;
11877;SDS011;5998;42.676;23.268;2022-09-17T05:03:30;10.17;;;3.27;;
11877;SDS011;5998;42.676;23.268;2022-09-17T05:05:56;5.83;;;3.47;;
11877;SDS011;5998;42.676;23.268;2022-09-17T05:08:23;10.20;;;3.13;;
11877;SDS011;5998;42.676;23.268;2022-09-17T05:10:50;6.27;;;2.93;;
11877;SDS011;5998;42.676;23.268;2022-09-17T05:13:17;7.03;;;3.10;;
11877;SDS011;5998;42.676;23.268;2022-09-17T05:15:44;6.47;;;2.57;;
11877;SDS011;5998;42.676;23.268;2022-09-17T05:18:10;7.93;;;2.80;;
11877;SDS011;5998;42.676;23.268;2022-09-17T05:20:38;8.20;;;3.80;;
11877;SDS011;5998;42.676;23.268;2022-09-17T05:23:05;8.93;;;3.20;;
11877;SDS011;5998;42.676;23.268;2022-09-17T05:25:32;7.77;;;3.20;;
11877;SDS011;5998;42.676;23.268;2022-09-17T05:27:59;6.57;;;2.90;;
11877;SDS011;5998;42.676;23.268;2022-09-17T05:30:26;6.57;;;2.80;;
11877;SDS011;5998;42.676;23.268;2022-09-17T05:32:57;7.97;;;3.00;;
11877;SDS011;5998;42.676;23.268;2022-09-17T05:35:25;9.80;;;3.60;;
11877;SDS011;5998;42.676;23.268;2022-09-17T05:37:56;8.30;;;3.20;;
11877;SDS011;5998;42.676;23.268;2022-09-17T05:40:25;8.67;;;2.70;;
11877;SDS011;5998;42.676;23.268;2022-09-17T05:42:52;6.13;;;2.80;;
11877;SDS011;5998;42.676;23.268;2022-09-17T05:45:23;6.47;;;2.40;;
11877;SDS011;5998;42.676;23.268;2022-09-17T05:47:53;8.57;;;2.97;;
11877;SDS011;5998;42.676;23.268;2022-09-17T05:50:20;6.03;;;2.20;;
11877;SDS011;5998;42.676;23.268;2022-09-17T05:52:47;2.97;;;2.40;;
11877;SDS011;5998;42.676;23.268;2022-09-17T05:55:16;4.93;;;2.10;;
11877;SDS011;5998;42.676;23.268;2022-09-17T05:57:43;4.23;;;1.90;;
11877;SDS011;5998;42.676;23.268;2022-09-17T06:00:10;5.07;;;2.10;;
11877;SDS011;5998;42.676;23.268;2022-09-17T06:02:38;3.93;;;2.00;;
11877;SDS011;5998;42.676;23.268;2022-09-17T06:05:04;3.37;;;1.97;;
11877;SDS011;5998;42.676;23.268;2022-09-17T06:07:33;10.57;;;2.00;;
11877;SDS011;5998;42.676;23.268;2022-09-17T06:10:00;5.03;;;2.30;;
11877;SDS011;5998;42.676;23.268;2022-09-17T06:12:28;2.67;;;1.50;;
11877;SDS011;5998;42.676;23.268;2022-09-17T06:14:55;3.77;;;2.00;;
11877;SDS011;5998;42.676;23.268;2022-09-17T06:17:22;5.73;;;2.70;;
11877;SDS011;5998;42.676;23.268;2022-09-17T06:19:48;6.60;;;2.30;;
11877;SDS011;5998;42.676;23.268;2022-09-17T06:22:16;6.77;;;2.80;;
11877;SDS011;5998;42.676;23.268;2022-09-17T06:24:44;5.93;;;2.50;;
11877;SDS011;5998;42.676;23.268;2022-09-17T06:27:11;5.70;;;2.50;;
11877;SDS011;5998;42.676;23.268;2022-09-17T06:29:39;6.13;;;2.67;;
11877;SDS011;5998;42.676;23.268;2022-09-17T06:32:06;4.20;;;2.37;;
11877;SDS011;5998;42.676;23.268;2022-09-17T06:34:35;6.73;;;2.57;;
11877;SDS011;5998;42.676;23.268;2022-09-17T06:37:01;4.80;;;2.40;;
11877;SDS011;5998;42.676;23.268;2022-09-17T06:39:28;4.43;;;2.40;;
11877;SDS011;5998;42.676;23.268;2022-09-17T06:41:55;4.67;;;2.30;;
11877;SDS011;5998;42.676;23.268;2022-09-17T06:44:21;4.53;;;2.40;;
11877;SDS011;5998;42.676;23.268;2022-09-17T06:46:49;7.37;;;2.70;;
11877;SDS011;5998;42.676;23.268;2022-09-17T06:49:16;5.50;;;2.40;;
11877;SDS011;5998;42.676;23.268;2022-09-17T06:51:43;5.60;;;2.73;;
11877;SDS011;5998;42.676;23.268;2022-09-17T06:54:10;8.13;;;7.43;;
11877;SDS011;5998;42.676;23.268;2022-09-17T06:56:37;5.03;;;2.77;;
11877;SDS011;5998;42.676;23.268;2022-09-17T06:59:04;3.17;;;2.80;;
11877;SDS011;5998;42.676;23.268;2022-09-17T07:01:30;5.40;;;2.63;;
11877;SDS011;5998;42.676;23.268;2022-09-17T07:03:59;5.83;;;2.80;;
11877;SDS011;5998;42.676;23.268;2022-09-17T07:06:26;6.07;;;3.10;;
11877;SDS011;5998;42.676;23.268;2022-09-17T07:08:52;4.93;;;2.27;;
11877;SDS011;5998;42.676;23.268;2022-09-17T07:11:19;7.33;;;2.97;;
11877;SDS011;5998;42.676;23.268;2022-09-17T07:13:46;6.70;;;2.60;;
11877;SDS011;5998;42.676;23.268;2022-09-17T07:16:12;7.67;;;3.00;;
11877;SDS011;5998;42.676;23.268;2022-09-17T07:18:39;7.93;;;3.77;;
11877;SDS011;5998;42.676;23.268;2022-09-17T07:21:08;5.50;;;3.00;;
11877;SDS011;5998;42.676;23.268;2022-09-17T07:23:36;6.33;;;3.20;;
11877;SDS011;5998;42.676;23.268;2022-09-17T07:26:03;7.23;;;3.13;;
11877;SDS011;5998;42.676;23.268;2022-09-17T07:28:31;7.97;;;3.40;;
11877;SDS011;5998;42.676;23.268;2022-09-17T07:31:01;5.00;;;3.30;;
11877;SDS011;5998;42.676;23.268;2022-09-17T07:33:29;6.17;;;3.10;;
11877;SDS011;5998;42.676;23.268;2022-09-17T07:35:56;7.67;;;3.37;;
11877;SDS011;5998;42.676;23.268;2022-09-17T07:38:25;10.30;;;3.43;;
11877;SDS011;5998;42.676;23.268;2022-09-17T07:40:54;5.20;;;3.40;;
11877;SDS011;5998;42.676;23.268;2022-09-17T07:43:22;6.17;;;3.43;;
11877;SDS011;5998;42.676;23.268;2022-09-17T07:45:50;6.37;;;3.07;;
11877;SDS011;5998;42.676;23.268;2022-09-17T07:48:16;7.13;;;3.37;;
11877;SDS011;5998;42.676;23.268;2022-09-17T07:50:44;6.00;;;3.07;;
11877;SDS011;5998;42.676;23.268;2022-09-17T07:53:10;6.23;;;3.37;;
11877;SDS011;5998;42.676;23.268;2022-09-17T07:55:39;6.53;;;3.50;;
11877;SDS011;5998;42.676;23.268;2022-09-17T07:58:05;9.23;;;3.90;;
11877;SDS011;5998;42.676;23.268;2022-09-17T08:00:32;9.40;;;4.10;;
11877;SDS011;5998;42.676;23.268;2022-09-17T08:02:59;6.53;;;3.97;;
11877;SDS011;5998;42.676;23.268;2022-09-17T08:05:26;8.03;;;4.37;;
11877;SDS011;5998;42.676;23.268;2022-09-17T08:07:53;4.87;;;3.23;;
11877;SDS011;5998;42.676;23.268;2022-09-17T08:10:21;8.43;;;4.13;;
11877;SDS011;5998;42.676;23.268;2022-09-17T08:12:52;6.97;;;4.10;;
11877;SDS011;5998;42.676;23.268;2022-09-17T08:15:20;10.20;;;4.43;;
11877;SDS011;5998;42.676;23.268;2022-09-17T08:17:48;6.63;;;4.00;;
11877;SDS011;5998;42.676;23.268;2022-09-17T08:20:16;5.30;;;4.00;;
11877;SDS011;5998;42.676;23.268;2022-09-17T08:22:43;5.87;;;3.27;;
11877;SDS011;5998;42.676;23.268;2022-09-17T08:25:10;6.23;;;3.33;;
11877;SDS011;5998;42.676;23.268;2022-09-17T08:27:37;8.27;;;3.43;;
11877;SDS011;5998;42.676;23.268;2022-09-17T08:30:06;5.63;;;3.47;;
11877;SDS011;5998;42.676;23.268;2022-09-17T08:32:33;9.97;;;2.83;;
11877;SDS011;5998;42.676;23.268;2022-09-17T08:35:00;8.50;;;3.53;;
11877;SDS011;5998;42.676;23.268;2022-09-17T08:37:27;7.63;;;2.80;;
11877;SDS011;5998;42.676;23.268;2022-09-17T08:39:53;4.43;;;2.40;;
11877;SDS011;5998;42.676;23.268;2022-09-17T08:42:23;3.93;;;2.47;;
11877;SDS011;5998;42.676;23.268;2022-09-17T08:44:56;4.80;;;2.50;;
11877;SDS011;5998;42.676;23.268;2022-09-17T08:47:27;7.47;;;2.90;;
11877;SDS011;5998;42.676;23.268;2022-09-17T08:49:57;5.67;;;2.90;;
11877;SDS011;5998;42.676;23.268;2022-09-17T08:58:04;6.20;;;2.60;;
11877;SDS011;5998;42.676;23.268;2022-09-17T09:00:49;4.80;;;2.83;;
11877;SDS011;5998;42.676;23.268;2022-09-17T09:03:27;10.20;;;4.07;;
11877;SDS011;5998;42.676;23.268;2022-09-17T09:06:05;6.73;;;3.03;;
11877;SDS011;5998;42.676;23.268;2022-09-17T09:08:32;8.53;;;3.13;;
11877;SDS011;5998;42.676;23.268;2022-09-17T09:11:04;6.27;;;2.70;;
11877;SDS011;5998;42.676;23.268;2022-09-17T09:13:37;6.90;;;3.03;;
11877;SDS011;5998;42.676;23.268;2022-09-17T09:16:09;6.43;;;3.20;;
11877;SDS011;5998;42.676;23.268;2022-09-17T09:18:42;7.63;;;3.10;;
11877;SDS011;5998;42.676;23.268;2022-09-17T09:21:15;6.93;;;3.33;;
11877;SDS011;5998;42.676;23.268;2022-09-17T09:23:52;7.37;;;3.13;;
11877;SDS011;5998;42.676;23.268;2022-09-17T09:26:23;6.97;;;3.77;;
11877;SDS011;5998;42.676;23.268;2022-09-17T09:29:03;8.60;;;3.30;;
11877;SDS011;5998;42.676;23.268;2022-09-17T09:31:44;7.23;;;3.20;;
11877;SDS011;5998;42.676;23.268;2022-09-17T09:34:19;9.50;;;3.83;;
11877;SDS011;5998;42.676;23.268;2022-09-17T09:36:47;6.47;;;4.23;;
11877;SDS011;5998;42.676;23.268;2022-09-17T09:39:16;6.37;;;4.73;;
11877;SDS011;5998;42.676;23.268;2022-09-17T09:41:50;10.80;;;4.63;;
11877;SDS011;5998;42.676;23.268;2022-09-17T09:44:19;7.57;;;5.50;;
11877;SDS011;5998;42.676;23.268;2022-09-17T09:46:57;8.63;;;5.83;;
11877;SDS011;5998;42.676;23.268;2022-09-17T09:49:38;10.00;;;5.53;;
11877;SDS011;5998;42.676;23.268;2022-09-17T09:52:18;10.00;;;6.30;;
11877;SDS011;5998;42.676;23.268;2022-09-17T09:54:59;11.10;;;6.27;;
11877;SDS011;5998;42.676;23.268;2022-09-17T09:57:38;12.50;;;6.33;;
11877;SDS011;5998;42.676;23.268;2022-09-17T10:00:26;12.43;;;5.87;;
11877;SDS011;5998;42.676;23.268;2022-09-17T10:02:57;8.30;;;6.40;;
11877;SDS011;5998;42.676;23.268;2022-09-17T10:05:30;10.40;;;6.90;;
11877;SDS011;5998;42.676;23.268;2022-09-17T10:07:58;13.83;;;7.27;;
11877;SDS011;5998;42.676;23.268;2022-09-17T10:10:24;10.63;;;5.93;;
11877;SDS011;5998;42.676;23.268;2022-09-17T10:13:05;11.87;;;5.83;;
11877;SDS011;5998;42.676;23.268;2022-09-17T10:15:32;9.73;;;5.40;;
11877;SDS011;5998;42.676;23.268;2022-09-17T10:18:09;7.73;;;4.90;;
11877;SDS011;5998;42.676;23.268;2022-09-17T10:20:49;12.63;;;5.60;;
11877;SDS011;5998;42.676;23.268;2022-09-17T10:23:20;11.00;;;6.80;;
11877;SDS011;5998;42.676;23.268;2022-09-17T10:25:47;7.37;;;6.63;;
11877;SDS011;5998;42.676;23.268;2022-09-17T10:28:24;9.70;;;6.00;;
11877;SDS011;5998;42.676;23.268;2022-09-17T10:30:57;12.27;;;8.40;;
11877;SDS011;5998;42.676;23.268;2022-09-17T10:33:26;12.03;;;8.33;;
11877;SDS011;5998;42.676;23.268;2022-09-17T10:35:59;13.47;;;8.73;;
11877;SDS011;5998;42.676;23.268;2022-09-17T10:38:30;13.13;;;6.77;;
11877;SDS011;5998;42.676;23.268;2022-09-17T10:41:06;7.83;;;5.87;;
11877;SDS011;5998;42.676;23.268;2022-09-17T10:43:35;7.53;;;5.90;;
11877;SDS011;5998;42.676;23.268;2022-09-17T10:46:01;10.93;;;6.13;;
11877;SDS011;5998;42.676;23.268;2022-09-17T10:48:29;10.73;;;6.50;;
11877;SDS011;5998;42.676;23.268;2022-09-17T10:50:58;9.10;;;6.57;;
11877;SDS011;5998;42.676;23.268;2022-09-17T10:53:27;8.10;;;5.53;;
11877;SDS011;5998;42.676;23.268;2022-09-17T10:55:57;5.73;;;4.93;;
11877;SDS011;5998;42.676;23.268;2022-09-17T10:58:34;7.00;;;5.40;;
11877;SDS011;5998;42.676;23.268;2022-09-17T11:01:12;8.77;;;5.50;;
11877;SDS011;5998;42.676;23.268;2022-09-17T11:03:58;9.33;;;5.10;;
11877;SDS011;5998;42.676;23.268;2022-09-17T11:09:40;8.60;;;6.40;;
11877;SDS011;5998;42.676;23.268;2022-09-17T11:12:19;11.20;;;5.80;;
11877;SDS011;5998;42.676;23.268;2022-09-17T11:14:55;7.90;;;4.80;;
11877;SDS011;5998;42.676;23.268;2022-09-17T11:17:30;7.27;;;4.87;;
11877;SDS011;5998;42.676;23.268;2022-09-17T11:20:11;5.90;;;3.70;;
11877;SDS011;5998;42.676;23.268;2022-09-17T11:22:51;8.53;;;4.87;;
11877;SDS011;5998;42.676;23.268;2022-09-17T11:25:31;6.97;;;5.13;;
11877;SDS011;5998;42.676;23.268;2022-09-17T11:28:12;4.73;;;4.20;;
11877;SDS011;5998;42.676;23.268;2022-09-17T11:31:03;5.77;;;3.67;;
11877;SDS011;5998;42.676;23.268;2022-09-17T11:36:35;5.57;;;4.13;;
11877;SDS011;5998;42.676;23.268;2022-09-17T11:39:09;8.07;;;5.73;;
11877;SDS011;5998;42.676;23.268;2022-09-17T11:41:44;9.40;;;4.80;;
11877;SDS011;5998;42.676;23.268;2022-09-17T11:44:15;6.30;;;3.87;;
11877;SDS011;5998;42.676;23.268;2022-09-17T11:46:50;5.17;;;4.03;;
11877;SDS011;5998;42.676;23.268;2022-09-17T11:49:22;7.57;;;3.70;;
11877;SDS011;5998;42.676;23.268;2022-09-17T11:51:53;8.07;;;3.23;;
11877;SDS011;5998;42.676;23.268;2022-09-17T11:54:23;8.60;;;2.73;;
11877;SDS011;5998;42.676;23.268;2022-09-17T11:56:57;4.70;;;2.90;;
11877;SDS011;5998;42.676;23.268;2022-09-17T11:59:31;5.47;;;2.80;;
11877;SDS011;5998;42.676;23.268;2022-09-17T12:02:04;6.83;;;3.47;;
11877;SDS011;5998;42.676;23.268;2022-09-17T12:04:42;6.93;;;3.00;;
11877;SDS011;5998;42.676;23.268;2022-09-17T12:07:26;6.63;;;2.90;;
11877;SDS011;5998;42.676;23.268;2022-09-17T12:10:02;6.80;;;2.50;;
11877;SDS011;5998;42.676;23.268;2022-09-17T12:12:46;3.97;;;2.53;;
11877;SDS011;5998;42.676;23.268;2022-09-17T12:15:19;3.17;;;1.90;;
11877;SDS011;5998;42.676;23.268;2022-09-17T12:17:50;2.83;;;1.90;;
11877;SDS011;5998;42.676;23.268;2022-09-17T12:20:24;3.20;;;1.73;;
11877;SDS011;5998;42.676;23.268;2022-09-17T12:22:54;1.10;;;1.00;;
11877;SDS011;5998;42.676;23.268;2022-09-17T12:25:23;1.17;;;1.03;;
11877;SDS011;5998;42.676;23.268;2022-09-17T12:27:59;1.87;;;1.00;;
11877;SDS011;5998;42.676;23.268;2022-09-17T12:30:31;1.83;;;0.93;;
11877;SDS011;5998;42.676;23.268;2022-09-17T12:33:09;1.33;;;1.00;;
11877;SDS011;5998;42.676;23.268;2022-09-17T12:35:46;3.13;;;2.30;;
11877;SDS011;5998;42.676;23.268;2022-09-17T12:38:30;3.47;;;1.23;;
11877;SDS011;5998;42.676;23.268;2022-09-17T12:41:29;0.80;;;0.80;;
11877;SDS011;5998;42.676;23.268;2022-09-17T12:44:14;1.63;;;0.80;;
11877;SDS011;5998;42.676;23.268;2022-09-17T12:46:54;0.90;;;0.70;;
11877;SDS011;5998;42.676;23.268;2022-09-17T12:52:27;6.23;;;1.10;;
11877;SDS011;5998;42.676;23.268;2022-09-17T12:55:09;1.03;;;1.00;;
11877;SDS011;5998;42.676;23.268;2022-09-17T12:57:53;1.27;;;0.80;;
11877;SDS011;5998;42.676;23.268;2022-09-17T13:00:27;1.53;;;0.73;;
11877;SDS011;5998;42.676;23.268;2022-09-17T13:02:56;1.93;;;1.00;;
11877;SDS011;5998;42.676;23.268;2022-09-17T13:05:33;2.70;;;1.00;;
11877;SDS011;5998;42.676;23.268;2022-09-17T13:08:25;2.23;;;1.10;;
11877;SDS011;5998;42.676;23.268;2022-09-17T13:11:22;1.27;;;0.90;;
11877;SDS011;5998;42.676;23.268;2022-09-17T13:14:10;1.37;;;1.00;;
11877;SDS011;5998;42.676;23.268;2022-09-17T13:16:45;1.37;;;1.10;;
11877;SDS011;5998;42.676;23.268;2022-09-17T13:19:23;1.27;;;1.00;;
11877;SDS011;5998;42.676;23.268;2022-09-17T13:21:58;1.03;;;0.80;;
11877;SDS011;5998;42.676;23.268;2022-09-17T13:24:28;1.80;;;0.90;;
11877;SDS011;5998;42.676;23.268;2022-09-17T13:26:56;0.67;;;0.60;;
11877;SDS011;5998;42.676;23.268;2022-09-17T13:32:45;1.17;;;0.70;;
11877;SDS011;5998;42.676;23.268;2022-09-17T13:38:17;1.67;;;0.90;;
11877;SDS011;5998;42.676;23.268;2022-09-17T13:40:46;0.97;;;0.90;;
11877;SDS011;5998;42.676;23.268;2022-09-17T13:43:14;1.60;;;1.00;;
11877;SDS011;5998;42.676;23.268;2022-09-17T13:48:36;2.30;;;1.03;;
11877;SDS011;5998;42.676;23.268;2022-09-17T13:54:12;0.90;;;0.80;;
11877;SDS011;5998;42.676;23.268;2022-09-17T13:56:41;0.80;;;0.80;;
11877;SDS011;5998;42.676;23.268;2022-09-17T13:59:10;1.03;;;0.80;;
11877;SDS011;5998;42.676;23.268;2022-09-17T14:01:57;3.73;;;1.70;;
11877;SDS011;5998;42.676;23.268;2022-09-17T14:07:34;2.00;;;1.37;;
11877;SDS011;5998;42.676;23.268;2022-09-17T14:13:37;1.53;;;1.43;;
11877;SDS011;5998;42.676;23.268;2022-09-17T14:19:01;2.53;;;2.10;;
11877;SDS011;5998;42.676;23.268;2022-09-17T14:21:32;3.17;;;1.80;;
11877;SDS011;5998;42.676;23.268;2022-09-17T14:24:00;4.47;;;2.27;;
11877;SDS011;5998;42.676;23.268;2022-09-17T14:26:44;4.37;;;2.43;;
11877;SDS011;5998;42.676;23.268;2022-09-17T14:29:32;4.63;;;2.80;;
11877;SDS011;5998;42.676;23.268;2022-09-17T14:32:17;4.50;;;2.57;;
11877;SDS011;5998;42.676;23.268;2022-09-17T14:34:47;3.73;;;2.70;;
11877;SDS011;5998;42.676;23.268;2022-09-17T14:37:17;3.40;;;3.07;;
11877;SDS011;5998;42.676;23.268;2022-09-17T14:39:46;5.43;;;3.20;;
11877;SDS011;5998;42.676;23.268;2022-09-17T14:42:15;4.50;;;3.10;;
11877;SDS011;5998;42.676;23.268;2022-09-17T14:44:47;4.10;;;2.90;;
11877;SDS011;5998;42.676;23.268;2022-09-17T14:47:19;7.17;;;3.80;;
11877;SDS011;5998;42.676;23.268;2022-09-17T14:49:47;4.97;;;3.10;;
11877;SDS011;5998;42.676;23.268;2022-09-17T14:52:26;6.07;;;3.70;;
11877;SDS011;5998;42.676;23.268;2022-09-17T14:55:13;10.07;;;7.90;;
11877;SDS011;5998;42.676;23.268;2022-09-17T14:57:42;7.40;;;6.60;;
11877;SDS011;5998;42.676;23.268;2022-09-17T15:00:15;8.63;;;7.73;;
11877;SDS011;5998;42.676;23.268;2022-09-17T15:02:48;10.33;;;9.33;;
11877;SDS011;5998;42.676;23.268;2022-09-17T15:05:17;11.27;;;10.17;;
11877;SDS011;5998;42.676;23.268;2022-09-17T15:07:49;14.73;;;13.17;;
11877;SDS011;5998;42.676;23.268;2022-09-17T15:10:16;14.43;;;11.93;;
11877;SDS011;5998;42.676;23.268;2022-09-17T15:12:45;11.23;;;9.83;;
11877;SDS011;5998;42.676;23.268;2022-09-17T15:15:15;10.13;;;9.10;;
11877;SDS011;5998;42.676;23.268;2022-09-17T15:17:45;11.60;;;8.33;;
11877;SDS011;5998;42.676;23.268;2022-09-17T15:20:15;12.07;;;8.07;;
11877;SDS011;5998;42.676;23.268;2022-09-17T15:22:44;7.97;;;5.40;;
11877;SDS011;5998;42.676;23.268;2022-09-17T15:25:19;11.37;;;7.63;;
11877;SDS011;5998;42.676;23.268;2022-09-17T15:27:49;11.03;;;7.53;;
11877;SDS011;5998;42.676;23.268;2022-09-17T15:30:21;11.20;;;7.80;;
11877;SDS011;5998;42.676;23.268;2022-09-17T15:32:49;7.70;;;5.03;;
11877;SDS011;5998;42.676;23.268;2022-09-17T15:35:22;7.23;;;4.80;;
11877;SDS011;5998;42.676;23.268;2022-09-17T15:37:54;6.10;;;4.53;;
11877;SDS011;5998;42.676;23.268;2022-09-17T15:40:24;6.80;;;4.90;;
11877;SDS011;5998;42.676;23.268;2022-09-17T15:42:56;7.13;;;4.30;;
11877;SDS011;5998;42.676;23.268;2022-09-17T15:45:27;6.83;;;3.97;;
11877;SDS011;5998;42.676;23.268;2022-09-17T15:47:56;3.97;;;3.57;;
11877;SDS011;5998;42.676;23.268;2022-09-17T15:50:24;6.27;;;3.80;;